Time;durP1;ratioP1;P1;durP2;ratioP2;P2;SDS_P1;SDS_P2;PMS_P1;PMS_P2;Temp;Humidity;BMP_temperature;BMP_pressure;BME280_temperature;BME280_humidity;BME280_pressure;Samples;Min_cycle;Max_cycle;Signal;HPM_P1;HPM_P2
2022/04/29 00:02:08;;;;;;;;;;;22.20;38.00;;;;;;5071662;28;19995;-61
2022/04/29 00:04:33;;;;;;;;;;;22.20;38.00;;;;;;5071403;28;19909;-61
2022/04/29 00:06:59;;;;;;;;;;;22.20;37.90;;;;;;5070389;28;19949;-61
2022/04/29 00:09:24;;;;;;;;;;;22.20;38.00;;;;;;5070900;28;20441;-61
2022/04/29 00:11:51;;;;;;;;;;;22.20;37.90;;;;;;5071976;28;19912;-61
2022/04/29 00:14:17;;;;;;;;;;;22.20;37.90;;;;;;5071200;28;20272;-61
2022/04/29 00:16:42;;;;;;;;;;;22.20;37.90;;;;;;5071675;28;19909;-61
2022/04/29 00:19:08;;;;;;;;;;;22.20;37.90;;;;;;5051773;28;19948;-61
2022/04/29 00:21:33;;;;;;;;;;;22.20;37.90;;;;;;5051375;28;19931;-61
2022/04/29 00:23:59;;;;;;;;;;;22.20;38.00;;;;;;5051041;28;19912;-62
2022/04/29 00:26:24;;;;;;;;;;;22.10;37.90;;;;;;5063829;28;20345;-61
2022/04/29 00:28:50;;;;;;;;;;;22.10;37.90;;;;;;5071151;28;19916;-61
2022/04/29 00:31:15;;;;;;;;;;;22.10;37.90;;;;;;5072996;28;19913;-61
2022/04/29 00:33:40;;;;;;;;;;;22.10;37.90;;;;;;5075127;28;19963;-61
2022/04/29 00:36:06;;;;;;;;;;;22.10;37.90;;;;;;5074895;28;19920;-61
2022/04/29 00:38:32;;;;;;;;;;;22.10;38.00;;;;;;5073654;28;20328;-61
2022/04/29 00:40:57;;;;;;;;;;;22.10;38.00;;;;;;5074704;28;19915;-61
2022/04/29 00:43:23;;;;;;;;;;;22.10;37.90;;;;;;5074740;28;19912;-60
2022/04/29 00:45:48;;;;;;;;;;;22.10;37.90;;;;;;5074188;28;19925;-61
2022/04/29 00:48:14;;;;;;;;;;;22.10;37.90;;;;;;5074821;28;19920;-61
2022/04/29 00:50:40;;;;;;;;;;;22.10;37.90;;;;;;5074563;28;19920;-61
2022/04/29 00:53:05;;;;;;;;;;;22.00;37.90;;;;;;5073401;28;19909;-61
2022/04/29 00:55:31;;;;;;;;;;;22.10;38.00;;;;;;5072593;28;20273;-61
2022/04/29 00:58:02;;;;;;;;;;;22.00;37.80;;;;;;5055000;28;19913;-61
2022/04/29 01:00:28;;;;;;;;;;;22.00;37.90;;;;;;5067057;28;19962;-61
2022/04/29 01:02:54;;;;;;;;;;;22.00;37.90;;;;;;5074635;28;20360;-61
2022/04/29 01:05:22;;;;;;;;;;;22.00;38.40;;;;;;5074479;28;19916;-61
2022/04/29 01:07:48;;;;;;;;;;;22.00;37.80;;;;;;5073273;28;20323;-61
2022/04/29 01:10:14;;;;;;;;;;;22.00;37.80;;;;;;5072618;28;19916;-61
2022/04/29 01:12:41;;;;;;;;;;;22.00;37.90;;;;;;5074506;28;20459;-61
2022/04/29 01:15:07;;;;;;;;;;;22.00;37.90;;;;;;5072526;28;20050;-61
2022/04/29 01:17:34;;;;;;;;;;;22.00;37.80;;;;;;5074187;28;19915;-60
2022/04/29 01:20:07;;;;;;;;;;;22.00;37.90;;;;;;5073018;28;20007;-61
2022/04/29 01:22:32;;;;;;;;;;;22.00;37.90;;;;;;5074438;28;20266;-60
2022/04/29 01:24:58;;;;;;;;;;;22.00;37.90;;;;;;5073665;28;19991;-61
2022/04/29 01:27:23;;;;;;;;;;;21.90;37.80;;;;;;5074148;28;19955;-61
2022/04/29 01:29:50;;;;;;;;;;;21.90;37.80;;;;;;5072311;28;19920;-61
2022/04/29 01:32:16;;;;;;;;;;;21.90;37.80;;;;;;5071830;28;19908;-60
2022/04/29 01:34:41;;;;;;;;;;;21.90;37.80;;;;;;5073700;28;19919;-61
2022/04/29 01:37:07;;;;;;;;;;;21.90;37.80;;;;;;5074015;28;19913;-60
2022/04/29 01:39:32;;;;;;;;;;;21.90;37.90;;;;;;5072899;28;19995;-61
2022/04/29 01:41:58;;;;;;;;;;;21.90;37.80;;;;;;5073678;28;20435;-61
2022/04/29 01:44:23;;;;;;;;;;;21.90;37.90;;;;;;5073160;28;20017;-61
2022/04/29 01:46:49;;;;;;;;;;;21.80;37.80;;;;;;5056041;28;19913;-61
2022/04/29 01:49:15;;;;;;;;;;;21.80;37.80;;;;;;5053404;28;19913;-61
2022/04/29 01:51:41;;;;;;;;;;;21.80;37.80;;;;;;5068462;28;19912;-61
2022/04/29 01:54:10;;;;;;;;;;;21.80;37.80;;;;;;5073007;28;19915;-61
2022/04/29 01:56:39;;;;;;;;;;;21.80;37.80;;;;;;5073659;28;19913;-60
2022/04/29 01:59:07;;;;;;;;;;;21.80;37.80;;;;;;5072959;28;19915;-61
2022/04/29 02:01:33;;;;;;;;;;;21.80;37.80;;;;;;5073503;28;19915;-61
2022/04/29 02:03:59;;;;;;;;;;;21.80;37.80;;;;;;5072300;28;19969;-61
2022/04/29 02:06:26;;;;;;;;;;;21.80;37.80;;;;;;5073373;28;19908;-61
2022/04/29 02:08:51;;;;;;;;;;;21.80;37.90;;;;;;5073083;28;19912;-61
2022/04/29 02:11:17;;;;;;;;;;;21.80;37.80;;;;;;5072790;28;20391;-61
2022/04/29 02:13:45;;;;;;;;;;;21.80;37.80;;;;;;5072905;28;19915;-61
2022/04/29 02:16:11;;;;;;;;;;;21.80;37.90;;;;;;5073339;28;19919;-61
2022/04/29 02:18:37;;;;;;;;;;;21.70;37.80;;;;;;5059021;28;19909;-61
2022/04/29 02:21:02;;;;;;;;;;;21.80;38.00;;;;;;5053356;28;20598;-61
2022/04/29 02:23:28;;;;;;;;;;;21.70;37.80;;;;;;5053090;28;20051;-61
2022/04/29 02:25:53;;;;;;;;;;;21.70;37.90;;;;;;5071072;28;19916;-61
2022/04/29 02:28:19;;;;;;;;;;;21.70;38.00;;;;;;5071653;28;20323;-61
2022/04/29 02:30:44;;;;;;;;;;;21.70;38.00;;;;;;5072647;28;19940;-61
2022/04/29 02:33:09;;;;;;;;;;;21.70;38.10;;;;;;5071761;28;19935;-62
2022/04/29 02:35:35;;;;;;;;;;;21.70;38.00;;;;;;5072611;28;19923;-61
2022/04/29 02:38:00;;;;;;;;;;;21.70;38.00;;;;;;5072689;28;19965;-60
2022/04/29 02:40:26;;;;;;;;;;;21.60;38.00;;;;;;5072242;28;19916;-60
2022/04/29 02:42:51;;;;;;;;;;;21.60;37.90;;;;;;5072770;28;19909;-61
2022/04/29 02:45:17;;;;;;;;;;;21.60;38.00;;;;;;5071870;28;19920;-59
2022/04/29 02:47:42;;;;;;;;;;;21.60;38.00;;;;;;5072636;28;19966;-61
2022/04/29 02:50:08;;;;;;;;;;;21.60;38.00;;;;;;5072392;28;19923;-61
2022/04/29 02:52:33;;;;;;;;;;;21.60;38.00;;;;;;5072446;28;20003;-60
2022/04/29 02:54:59;;;;;;;;;;;21.50;38.10;;;;;;5071346;28;19908;-60
2022/04/29 02:57:24;;;;;;;;;;;21.50;38.20;;;;;;5053888;28;19909;-60
2022/04/29 02:59:50;;;;;;;;;;;21.50;38.20;;;;;;5067829;28;19912;-61
2022/04/29 03:02:15;;;;;;;;;;;21.50;38.20;;;;;;5072307;28;19956;-61
2022/04/29 03:04:41;;;;;;;;;;;21.50;38.10;;;;;;5072060;28;20261;-60
2022/04/29 03:07:06;;;;;;;;;;;21.50;38.80;;;;;;5072346;28;19908;-61
2022/04/29 03:09:32;;;;;;;;;;;21.40;38.30;;;;;;5071524;28;20011;-60
2022/04/29 03:11:57;;;;;;;;;;;21.30;38.40;;;;;;5072346;28;19908;-60
2022/04/29 03:14:22;;;;;;;;;;;21.30;38.40;;;;;;5071687;28;19919;-61
2022/04/29 03:16:48;;;;;;;;;;;21.40;38.40;;;;;;5072389;28;19918;-61
2022/04/29 03:19:14;;;;;;;;;;;21.30;38.40;;;;;;5071818;28;19935;-59
2022/04/29 03:21:39;;;;;;;;;;;21.20;38.50;;;;;;5072332;28;19916;-61
2022/04/29 03:24:05;;;;;;;;;;;21.20;38.60;;;;;;5071517;28;19962;-61
2022/04/29 03:26:30;;;;;;;;;;;21.10;38.70;;;;;;5072349;28;20286;-60
2022/04/29 03:28:56;;;;;;;;;;;21.10;38.80;;;;;;5070417;28;20352;-60
2022/04/29 03:31:21;;;;;;;;;;;21.00;38.80;;;;;;5070795;28;19924;-60
2022/04/29 03:33:47;;;;;;;;;;;21.00;38.80;;;;;;5071890;28;20007;-60
2022/04/29 03:36:14;;;;;;;;;;;20.90;38.90;;;;;;5071840;28;19916;-61
2022/04/29 03:38:40;;;;;;;;;;;20.90;39.00;;;;;;5072097;28;19944;-61
2022/04/29 03:41:05;;;;;;;;;;;20.90;39.00;;;;;;5070122;28;19959;-61
2022/04/29 03:43:31;;;;;;;;;;;20.90;39.00;;;;;;5071879;28;20421;-61
2022/04/29 03:45:56;;;;;;;;;;;20.90;39.00;;;;;;5062513;28;19956;-61
2022/04/29 03:48:22;;;;;;;;;;;20.90;39.00;;;;;;5051785;28;20291;-61
2022/04/29 03:50:48;;;;;;;;;;;20.90;39.00;;;;;;5067126;28;19919;-61
2022/04/29 03:53:13;;;;;;;;;;;20.90;39.00;;;;;;5072061;28;19908;-61
2022/04/29 03:55:38;;;;;;;;;;;20.90;38.90;;;;;;5071307;28;20006;-60
2022/04/29 03:58:04;;;;;;;;;;;20.90;38.90;;;;;;5071680;28;20017;-61
2022/04/29 04:00:31;;;;;;;;;;;21.00;38.90;;;;;;5071368;28;19913;-60
2022/04/29 04:02:56;;;;;;;;;;;21.00;38.90;;;;;;5072010;28;19916;-61
2022/04/29 04:05:23;;;;;;;;;;;21.00;38.80;;;;;;5073557;28;19914;-61
2022/04/29 04:07:48;;;;;;;;;;;21.00;38.80;;;;;;5075200;28;19912;-61
2022/04/29 04:10:14;;;;;;;;;;;21.00;38.80;;;;;;5073812;28;20368;-60
2022/04/29 04:12:40;;;;;;;;;;;21.00;38.70;;;;;;5075523;28;20007;-60
2022/04/29 04:15:06;;;;;;;;;;;21.00;38.70;;;;;;5074906;28;19951;-61
2022/04/29 04:17:31;;;;;;;;;;;21.00;38.70;;;;;;5070754;28;19915;-61
2022/04/29 04:19:57;;;;;;;;;;;21.00;38.60;;;;;;5053931;28;20028;-60
2022/04/29 04:22:22;;;;;;;;;;;21.00;38.70;;;;;;5055332;28;20007;-61
2022/04/29 04:24:48;;;;;;;;;;;21.00;38.70;;;;;;5070458;28;19948;-61
2022/04/29 04:27:13;;;;;;;;;;;21.00;38.70;;;;;;5075311;28;19919;-61
2022/04/29 04:29:38;;;;;;;;;;;21.00;38.70;;;;;;5074622;28;20384;-60
2022/04/29 04:32:04;;;;;;;;;;;21.00;38.70;;;;;;5075122;28;20565;-61
2022/04/29 04:37:13;;;;;;;;;;;21.00;38.60;;;;;;5075124;28;19951;-61
2022/04/29 04:39:39;;;;;;;;;;;21.00;38.50;;;;;;5074706;28;19951;-61
2022/04/29 04:42:06;;;;;;;;;;;21.00;38.50;;;;;;5073695;28;19909;-61
2022/04/29 04:44:31;;;;;;;;;;;21.00;38.50;;;;;;5074289;28;19924;-61
2022/04/29 04:46:57;;;;;;;;;;;21.00;38.50;;;;;;5074939;28;19980;-60
2022/04/29 04:49:22;;;;;;;;;;;21.00;38.50;;;;;;5074645;28;19961;-60
2022/04/29 04:51:48;;;;;;;;;;;20.90;38.50;;;;;;5074819;28;20054;-60
2022/04/29 04:54:13;;;;;;;;;;;20.90;38.50;;;;;;5074189;28;19927;-60
2022/04/29 04:56:38;;;;;;;;;;;20.90;38.50;;;;;;5074766;28;19919;-61
2022/04/29 04:59:06;;;;;;;;;;;20.90;38.50;;;;;;5073506;28;21305;-61
2022/04/29 05:01:31;;;;;;;;;;;20.90;38.60;;;;;;5074697;28;19991;-61
2022/04/29 05:03:56;;;;;;;;;;;20.90;38.50;;;;;;5074434;28;19958;-61
2022/04/29 05:06:22;;;;;;;;;;;20.90;38.50;;;;;;5073260;28;19920;-61
2022/04/29 05:08:47;;;;;;;;;;;20.90;38.50;;;;;;5064964;28;19912;-60
2022/04/29 05:11:13;;;;;;;;;;;20.90;38.80;;;;;;5073970;28;19966;-60
2022/04/29 05:13:38;;;;;;;;;;;20.90;38.50;;;;;;5073996;28;19919;-61
2022/04/29 05:16:04;;;;;;;;;;;20.90;38.60;;;;;;5073951;28;20340;-60
2022/04/29 05:18:30;;;;;;;;;;;20.90;38.60;;;;;;5074361;28;19952;-60
2022/04/29 05:20:55;;;;;;;;;;;20.90;38.40;;;;;;5074293;28;19963;-60
2022/04/29 05:23:21;;;;;;;;;;;20.90;38.40;;;;;;5074303;28;20413;-60
2022/04/29 05:25:46;;;;;;;;;;;20.90;38.40;;;;;;5073769;28;19908;-60
2022/04/29 05:28:12;;;;;;;;;;;20.90;38.50;;;;;;5074207;28;19908;-60
2022/04/29 05:30:37;;;;;;;;;;;20.90;38.50;;;;;;5072287;28;19912;-60
2022/04/29 05:33:03;;;;;;;;;;;20.80;38.40;;;;;;5072057;28;20065;-61
2022/04/29 05:35:28;;;;;;;;;;;20.90;38.50;;;;;;5072475;28;19920;-60
2022/04/29 05:37:54;;;;;;;;;;;20.90;38.40;;;;;;5073984;28;19919;-61
2022/04/29 05:43:04;;;;;;;;;;;20.90;38.40;;;;;;5073927;28;19920;-61
2022/04/29 05:45:30;;;;;;;;;;;20.90;38.40;;;;;;5067824;28;19925;-60
2022/04/29 05:47:56;;;;;;;;;;;20.90;38.50;;;;;;5054023;28;19920;-61
2022/04/29 05:50:21;;;;;;;;;;;20.90;38.50;;;;;;5073324;28;19912;-61
2022/04/29 05:52:48;;;;;;;;;;;20.90;38.60;;;;;;5074046;28;19912;-60
2022/04/29 05:55:13;;;;;;;;;;;20.90;38.60;;;;;;5071746;28;19915;-60
2022/04/29 05:57:39;;;;;;;;;;;20.90;38.50;;;;;;5073664;28;19916;-60
2022/04/29 06:00:05;;;;;;;;;;;20.90;38.50;;;;;;5073013;28;20152;-61
2022/04/29 06:02:31;;;;;;;;;;;20.90;38.50;;;;;;5073498;28;20010;-61
2022/04/29 06:04:56;;;;;;;;;;;20.90;38.50;;;;;;5072157;28;19935;-60
2022/04/29 06:07:22;;;;;;;;;;;20.90;38.60;;;;;;5073343;28;19909;-60
2022/04/29 06:09:47;;;;;;;;;;;20.90;38.50;;;;;;5072442;28;19912;-61
2022/04/29 06:12:13;;;;;;;;;;;20.90;38.50;;;;;;5073333;28;19919;-60
2022/04/29 06:14:41;;;;;;;;;;;20.90;38.50;;;;;;5072707;28;19995;-60
2022/04/29 06:17:06;;;;;;;;;;;20.90;38.60;;;;;;5073395;28;19915;-59
2022/04/29 06:19:32;;;;;;;;;;;20.90;38.70;;;;;;5071725;28;20288;-61
2022/04/29 06:21:57;;;;;;;;;;;21.00;38.50;;;;;;5073430;28;20098;-61
2022/04/29 06:24:23;;;;;;;;;;;21.00;38.50;;;;;;5072535;28;19920;-61
2022/04/29 06:26:48;;;;;;;;;;;21.00;38.60;;;;;;5073021;28;19912;-61
2022/04/29 06:29:15;;;;;;;;;;;21.00;38.50;;;;;;5071338;28;20287;-61
2022/04/29 06:31:40;;;;;;;;;;;21.00;38.50;;;;;;5073068;28;19954;-61
2022/04/29 06:34:06;;;;;;;;;;;21.00;38.50;;;;;;5072255;28;20299;-60
2022/04/29 06:36:31;;;;;;;;;;;21.10;38.70;;;;;;5052884;28;19919;-61
2022/04/29 06:38:56;;;;;;;;;;;21.00;38.60;;;;;;5068762;28;19962;-59
2022/04/29 06:41:22;;;;;;;;;;;21.00;38.80;;;;;;5071964;28;19913;-61
2022/04/29 06:43:48;;;;;;;;;;;21.00;38.70;;;;;;5070092;28;19952;-58
2022/04/29 06:46:14;;;;;;;;;;;21.00;38.50;;;;;;5071876;28;19917;-61
2022/04/29 06:48:40;;;;;;;;;;;21.10;38.50;;;;;;5072358;28;19909;-60
2022/04/29 06:51:05;;;;;;;;;;;21.00;38.60;;;;;;5072251;28;19965;-60
2022/04/29 06:53:31;;;;;;;;;;;21.00;38.60;;;;;;5072369;28;20313;-61
2022/04/29 06:55:56;;;;;;;;;;;21.00;38.70;;;;;;5071858;28;19921;-61
2022/04/29 06:58:22;;;;;;;;;;;21.00;38.70;;;;;;5072191;28;19908;-61
2022/04/29 07:00:47;;;;;;;;;;;21.00;38.70;;;;;;5072073;28;20364;-61
2022/04/29 07:03:13;;;;;;;;;;;21.00;38.60;;;;;;5070810;28;19923;-61
2022/04/29 07:05:38;;;;;;;;;;;21.00;38.70;;;;;;5070683;28;19920;-61
2022/04/29 07:08:04;;;;;;;;;;;21.00;38.70;;;;;;5061290;28;19909;-61
2022/04/29 07:10:29;;;;;;;;;;;21.00;38.70;;;;;;5070373;28;19923;-61
2022/04/29 07:12:55;;;;;;;;;;;21.00;38.70;;;;;;5072204;28;19912;-60
2022/04/29 07:15:23;;;;;;;;;;;21.10;38.70;;;;;;5071646;28;20395;-61
2022/04/29 07:17:49;;;;;;;;;;;21.10;38.70;;;;;;5072160;28;19958;-61
2022/04/29 07:20:15;;;;;;;;;;;21.10;38.60;;;;;;5071904;28;19909;-61
2022/04/29 07:22:41;;;;;;;;;;;21.00;39.30;;;;;;5072057;28;19908;-61
2022/04/29 07:25:07;;;;;;;;;;;21.00;38.70;;;;;;5071697;28;20276;-60
2022/04/29 07:27:32;;;;;;;;;;;21.00;38.70;;;;;;5071952;28;19999;-60
2022/04/29 07:29:59;;;;;;;;;;;21.00;38.70;;;;;;5071405;28;20014;-61
2022/04/29 07:32:25;;;;;;;;;;;21.00;38.70;;;;;;5070706;28;20464;-61
2022/04/29 07:43:07;;;;;;;;;;;21.00;38.70;;;;;;5071808;28;20327;-61
2022/04/29 07:45:32;;;;;;;;;;;21.00;38.80;;;;;;5066486;28;19921;-61
2022/04/29 07:48:00;;;;;;;;;;;21.00;38.70;;;;;;5051593;28;19909;-61
2022/04/29 07:50:29;;;;;;;;;;;21.00;38.80;;;;;;5051379;28;19912;-61
2022/04/29 07:52:55;;;;;;;;;;;21.00;38.90;;;;;;5051652;28;19913;-61
2022/04/29 07:55:21;;;;;;;;;;;21.00;38.70;;;;;;5051150;28;19913;-61
2022/04/29 07:57:46;;;;;;;;;;;21.10;38.80;;;;;;5051707;28;20262;-61
2022/04/29 08:00:13;;;;;;;;;;;21.00;39.40;;;;;;5051051;28;19909;-61
2022/04/29 08:02:38;;;;;;;;;;;21.10;38.80;;;;;;5051510;28;19916;-61
2022/04/29 08:05:04;;;;;;;;;;;21.10;38.80;;;;;;5051310;28;19913;-61
2022/04/29 08:07:30;;;;;;;;;;;21.00;38.70;;;;;;5051800;28;20320;-61
2022/04/29 08:09:56;;;;;;;;;;;21.10;38.80;;;;;;5070534;28;19912;-61
2022/04/29 08:12:21;;;;;;;;;;;21.10;38.90;;;;;;5071591;28;19912;-61
2022/04/29 08:14:47;;;;;;;;;;;21.00;39.00;;;;;;5070869;28;19916;-61
2022/04/29 08:17:12;;;;;;;;;;;20.90;39.10;;;;;;5071274;28;19908;-61
2022/04/29 08:19:38;;;;;;;;;;;20.80;39.20;;;;;;5071096;28;19912;-61
2022/04/29 08:22:04;;;;;;;;;;;20.80;39.20;;;;;;5070147;28;19912;-61
2022/04/29 08:24:29;;;;;;;;;;;20.90;39.30;;;;;;5070870;28;19909;-62
2022/04/29 08:26:55;;;;;;;;;;;20.90;39.20;;;;;;5070227;28;19915;-62
2022/04/29 08:29:20;;;;;;;;;;;21.00;39.10;;;;;;5070654;28;19909;-62
2022/04/29 08:31:48;;;;;;;;;;;21.00;39.00;;;;;;5071368;28;19916;-62
2022/04/29 08:34:17;;;;;;;;;;;21.00;39.00;;;;;;5070535;28;20280;-62
2022/04/29 08:36:43;;;;;;;;;;;21.10;39.00;;;;;;5051481;28;19909;-62
2022/04/29 08:39:08;;;;;;;;;;;21.10;38.90;;;;;;5063810;28;20063;-62
2022/04/29 08:41:35;;;;;;;;;;;21.10;39.00;;;;;;5071613;28;19952;-62
2022/04/29 08:44:01;;;;;;;;;;;21.10;38.90;;;;;;5070555;28;19915;-62
2022/04/29 08:46:26;;;;;;;;;;;21.10;38.90;;;;;;5071190;28;20292;-62
2022/04/29 08:48:52;;;;;;;;;;;21.00;39.00;;;;;;5071018;28;19991;-62
2022/04/29 08:51:18;;;;;;;;;;;21.00;39.00;;;;;;5071425;28;19920;-62
2022/04/29 08:53:43;;;;;;;;;;;21.00;39.00;;;;;;5074562;28;19908;-62
2022/04/29 08:58:53;;;;;;;;;;;21.00;39.20;;;;;;5073216;28;20379;-62
2022/04/29 09:01:21;;;;;;;;;;;21.00;39.10;;;;;;5074533;28;19924;-62
2022/04/29 09:03:46;;;;;;;;;;;21.00;39.20;;;;;;5074718;28;19908;-62
2022/04/29 09:06:12;;;;;;;;;;;21.00;39.30;;;;;;5073251;28;20398;-61
2022/04/29 09:08:38;;;;;;;;;;;20.90;39.30;;;;;;5063544;28;20005;-62
2022/04/29 09:11:05;;;;;;;;;;;20.90;39.40;;;;;;5073875;28;19928;-61
2022/04/29 09:13:31;;;;;;;;;;;20.90;39.40;;;;;;5074533;28;19962;-61
2022/04/29 09:16:01;;;;;;;;;;;20.90;39.60;;;;;;5074242;28;19908;-62
2022/04/29 09:18:37;;;;;;;;;;;20.90;39.70;;;;;;5057106;28;19958;-62
2022/04/29 09:21:11;;;;;;;;;;;20.90;39.60;;;;;;5074283;28;19909;-62
2022/04/29 09:23:42;;;;;;;;;;;21.00;39.70;;;;;;5074149;28;19908;-62
2022/04/29 09:26:09;;;;;;;;;;;20.90;39.70;;;;;;5073742;28;19908;-62
2022/04/29 09:28:35;;;;;;;;;;;20.90;39.70;;;;;;5072337;28;19909;-62
2022/04/29 09:31:01;;;;;;;;;;;20.90;39.80;;;;;;5073904;28;19919;-62
2022/04/29 09:33:26;;;;;;;;;;;20.90;40.00;;;;;;5073979;28;19909;-62
2022/04/29 09:35:52;;;;;;;;;;;20.80;40.00;;;;;;5074180;28;19916;-62
2022/04/29 09:41:02;;;;;;;;;;;20.80;40.20;;;;;;5073612;28;19966;-62
2022/04/29 09:43:42;;;;;;;;;;;20.90;40.30;;;;;;5072548;28;19908;-62
2022/04/29 09:46:09;;;;;;;;;;;20.80;40.30;;;;;;5063370;28;19920;-62
2022/04/29 09:48:53;;;;;;;;;;;20.80;40.30;;;;;;5053681;28;20334;-61
2022/04/29 09:51:37;;;;;;;;;;;20.80;40.40;;;;;;5053682;28;20660;-62
2022/04/29 09:54:09;;;;;;;;;;;20.80;40.20;;;;;;5053361;28;19909;-62
2022/04/29 09:56:34;;;;;;;;;;;20.90;40.20;;;;;;5053869;28;20415;-62
2022/04/29 09:59:00;;;;;;;;;;;20.90;40.30;;;;;;5051939;28;19909;-62
2022/04/29 10:01:25;;;;;;;;;;;20.80;40.30;;;;;;5052179;28;19908;-62
2022/04/29 10:03:50;;;;;;;;;;;20.80;40.30;;;;;;5053164;28;19963;-62
2022/04/29 10:06:17;;;;;;;;;;;20.90;40.40;;;;;;5053370;28;19916;-62
2022/04/29 10:08:42;;;;;;;;;;;20.90;40.40;;;;;;5062754;28;19912;-62
2022/04/29 10:11:07;;;;;;;;;;;20.90;40.40;;;;;;5072687;28;20015;-62
2022/04/29 10:13:33;;;;;;;;;;;20.90;40.30;;;;;;5072774;28;19912;-62
2022/04/29 10:15:58;;;;;;;;;;;20.90;40.40;;;;;;5071874;28;19920;-62
2022/04/29 10:21:15;;;;;;;;;;;20.90;41.20;;;;;;5071886;28;19958;-62
2022/04/29 10:23:41;;;;;;;;;;;20.90;40.60;;;;;;5071791;28;19938;-62
2022/04/29 10:26:06;;;;;;;;;;;20.90;40.60;;;;;;5072518;28;19962;-61
2022/04/29 10:28:32;;;;;;;;;;;20.90;40.50;;;;;;5072775;28;19945;-62
2022/04/29 10:31:01;;;;;;;;;;;20.90;40.70;;;;;;5073043;28;20402;-62
2022/04/29 10:33:27;;;;;;;;;;;20.90;40.50;;;;;;5072963;28;20427;-62
2022/04/29 10:35:53;;;;;;;;;;;20.90;40.60;;;;;;5059465;28;19909;-62
2022/04/29 10:38:26;;;;;;;;;;;20.90;40.60;;;;;;5041094;28;19912;-62
2022/04/29 10:41:06;;;;;;;;;;;20.90;40.60;;;;;;5054286;28;20140;-62
2022/04/29 10:43:32;;;;;;;;;;;20.90;40.60;;;;;;5072281;28;19943;-62
2022/04/29 10:46:03;;;;;;;;;;;20.90;40.80;;;;;;5072374;28;20381;-62
2022/04/29 10:48:29;;;;;;;;;;;20.90;40.70;;;;;;5072493;28;20002;-62
2022/04/29 10:50:54;;;;;;;;;;;20.90;40.80;;;;;;5072372;28;20046;-62
2022/04/29 10:53:21;;;;;;;;;;;20.90;40.70;;;;;;5072359;28;19908;-62
2022/04/29 10:55:46;;;;;;;;;;;20.90;40.80;;;;;;5071985;28;20383;-62
2022/04/29 10:58:19;;;;;;;;;;;20.90;40.70;;;;;;5071109;28;20005;-62
2022/04/29 11:00:54;;;;;;;;;;;20.90;40.60;;;;;;5071864;28;20356;-62
2022/04/29 11:03:41;;;;;;;;;;;20.90;40.60;;;;;;5071043;28;19909;-62
2022/04/29 11:06:16;;;;;;;;;;;20.90;40.60;;;;;;5070917;28;19912;-62
2022/04/29 11:08:41;;;;;;;;;;;20.90;40.70;;;;;;5061599;28;19913;-62
2022/04/29 11:11:07;;;;;;;;;;;20.90;40.70;;;;;;5071825;28;19961;-62
2022/04/29 11:13:37;;;;;;;;;;;20.90;40.80;;;;;;5053723;28;19978;-62
2022/04/29 11:16:06;;;;;;;;;;;20.90;40.90;;;;;;5071760;28;19909;-62
2022/04/29 11:18:31;;;;;;;;;;;20.90;40.90;;;;;;5071918;28;19912;-62
2022/04/29 11:20:59;;;;;;;;;;;20.90;40.80;;;;;;5070929;28;19916;-62
2022/04/29 11:26:18;;;;;;;;;;;20.90;40.70;;;;;;5071542;28;20430;-62
2022/04/29 11:28:43;;;;;;;;;;;20.90;40.80;;;;;;5071686;28;19912;-62
2022/04/29 11:31:09;;;;;;;;;;;21.00;40.80;;;;;;5071791;28;20400;-62
2022/04/29 11:33:35;;;;;;;;;;;21.00;40.70;;;;;;5071909;28;19908;-62
2022/04/29 11:36:18;;;;;;;;;;;21.00;40.60;;;;;;5071738;28;19912;-62
2022/04/29 11:38:47;;;;;;;;;;;21.00;40.60;;;;;;5071875;28;20014;-62
2022/04/29 11:41:20;;;;;;;;;;;21.10;40.60;;;;;;5071598;28;19909;-62
2022/04/29 11:43:46;;;;;;;;;;;21.10;40.50;;;;;;5069903;28;20365;-62
2022/04/29 11:46:11;;;;;;;;;;;21.10;40.50;;;;;;5060576;28;19966;-62
2022/04/29 11:48:37;;;;;;;;;;;21.10;40.40;;;;;;5067107;28;19962;-62
2022/04/29 11:51:04;;;;;;;;;;;21.10;40.50;;;;;;5051559;28;20003;-62
2022/04/29 11:53:29;;;;;;;;;;;21.10;40.50;;;;;;5051632;28;20333;-62
2022/04/29 11:55:55;;;;;;;;;;;21.10;40.50;;;;;;5051330;28;19913;-62
2022/04/29 11:58:21;;;;;;;;;;;21.10;40.50;;;;;;5051888;28;19909;-62
2022/04/29 12:00:51;;;;;;;;;;;21.10;40.50;;;;;;5049830;28;19909;-62
2022/04/29 12:03:23;;;;;;;;;;;21.10;40.40;;;;;;5051436;28;20281;-62
2022/04/29 12:05:48;;;;;;;;;;;21.10;40.50;;;;;;5051521;28;19920;-62
2022/04/29 12:08:14;;;;;;;;;;;21.10;40.50;;;;;;5069943;28;20364;-62
2022/04/29 12:10:45;;;;;;;;;;;21.10;41.10;;;;;;5070861;28;19913;-61
2022/04/29 12:13:10;;;;;;;;;;;21.10;40.40;;;;;;5071505;28;19908;-62
2022/04/29 12:15:36;;;;;;;;;;;21.10;40.50;;;;;;5069810;28;19908;-62
2022/04/29 12:18:03;;;;;;;;;;;21.10;40.50;;;;;;5070154;28;20347;-62
2022/04/29 12:20:28;;;;;;;;;;;21.10;40.50;;;;;;5071356;28;19945;-62
2022/04/29 12:22:54;;;;;;;;;;;21.10;40.50;;;;;;5071436;28;20011;-62
2022/04/29 12:25:23;;;;;;;;;;;21.10;40.50;;;;;;5071125;28;20369;-62
2022/04/29 12:28:07;;;;;;;;;;;21.10;40.50;;;;;;5075405;28;20387;-62
2022/04/29 12:36:07;;;;;;;;;;;21.10;40.50;;;;;;5060799;28;19916;-62
2022/04/29 12:38:36;;;;;;;;;;;21.10;40.50;;;;;;5063145;28;19908;-62
2022/04/29 12:41:20;;;;;;;;;;;21.10;40.50;;;;;;5073258;28;20007;-62
2022/04/29 12:43:45;;;;;;;;;;;21.10;40.50;;;;;;5074303;28;19920;-62
2022/04/29 12:46:15;;;;;;;;;;;21.10;40.50;;;;;;5074807;28;19921;-62
2022/04/29 12:48:47;;;;;;;;;;;21.20;40.60;;;;;;5075391;28;19915;-63
2022/04/29 12:51:22;;;;;;;;;;;21.20;40.40;;;;;;5074545;28;19960;-63
2022/04/29 12:53:48;;;;;;;;;;;21.20;40.40;;;;;;5074745;28;19912;-62
2022/04/29 12:56:21;;;;;;;;;;;21.20;40.40;;;;;;5074568;28;19920;-62
2022/04/29 12:58:47;;;;;;;;;;;21.20;40.30;;;;;;5056439;28;19915;-62
2022/04/29 13:01:12;;;;;;;;;;;21.20;40.40;;;;;;5074666;28;19913;-62
2022/04/29 13:03:38;;;;;;;;;;;21.20;40.30;;;;;;5074574;28;20334;-62
2022/04/29 13:06:03;;;;;;;;;;;21.20;40.30;;;;;;5074569;28;19912;-62
2022/04/29 13:08:29;;;;;;;;;;;21.20;40.30;;;;;;5063754;28;19966;-62
2022/04/29 13:10:55;;;;;;;;;;;21.30;40.40;;;;;;5074183;28;20353;-61
2022/04/29 13:13:21;;;;;;;;;;;21.20;40.30;;;;;;5074401;28;19953;-62
2022/04/29 13:15:47;;;;;;;;;;;21.30;40.40;;;;;;5072600;28;19920;-63
2022/04/29 13:18:13;;;;;;;;;;;21.30;40.40;;;;;;5073119;28;19909;-62
2022/04/29 13:20:38;;;;;;;;;;;21.30;40.40;;;;;;5074087;28;20372;-62
2022/04/29 13:23:04;;;;;;;;;;;21.30;40.40;;;;;;5074515;28;19954;-62
2022/04/29 13:25:30;;;;;;;;;;;21.30;40.40;;;;;;5073769;28;19915;-62
2022/04/29 13:27:55;;;;;;;;;;;21.30;40.30;;;;;;5074242;28;19915;-61
2022/04/29 13:30:21;;;;;;;;;;;21.30;40.30;;;;;;5073564;28;19919;-62
2022/04/29 13:32:47;;;;;;;;;;;21.30;40.30;;;;;;5072904;28;20391;-62
2022/04/29 13:35:13;;;;;;;;;;;21.30;40.30;;;;;;5073800;28;20275;-62
2022/04/29 13:37:39;;;;;;;;;;;21.30;40.30;;;;;;5072076;28;20025;-62
2022/04/29 13:40:10;;;;;;;;;;;21.30;40.20;;;;;;5073523;28;19912;-62
2022/04/29 13:42:36;;;;;;;;;;;21.40;40.10;;;;;;5074502;28;20331;-62
2022/04/29 13:45:02;;;;;;;;;;;21.40;40.20;;;;;;5071885;28;20028;-61
2022/04/29 13:47:28;;;;;;;;;;;21.40;40.10;;;;;;5074022;28;20618;-62
2022/04/29 13:49:54;;;;;;;;;;;21.40;40.10;;;;;;5072126;28;19916;-62
2022/04/29 13:55:03;;;;;;;;;;;21.40;40.10;;;;;;5073033;28;19915;-62
2022/04/29 13:57:29;;;;;;;;;;;21.40;40.10;;;;;;5073624;28;20003;-62
2022/04/29 13:59:55;;;;;;;;;;;21.40;40.10;;;;;;5073063;28;19916;-62
2022/04/29 14:02:20;;;;;;;;;;;21.40;40.10;;;;;;5073605;28;19962;-62
2022/04/29 14:04:46;;;;;;;;;;;21.40;40.10;;;;;;5073375;28;20466;-62
2022/04/29 14:07:13;;;;;;;;;;;21.40;40.10;;;;;;5073602;28;19991;-62
2022/04/29 14:09:39;;;;;;;;;;;21.50;40.30;;;;;;5073024;28;19923;-63
2022/04/29 14:12:04;;;;;;;;;;;21.40;40.30;;;;;;5073353;28;19909;-62
2022/04/29 14:14:30;;;;;;;;;;;21.40;40.30;;;;;;5072674;28;19920;-62
2022/04/29 14:16:55;;;;;;;;;;;21.40;40.20;;;;;;5073388;28;19909;-62
2022/04/29 14:19:22;;;;;;;;;;;21.40;40.80;;;;;;5073022;28;19912;-62
2022/04/29 14:21:47;;;;;;;;;;;21.40;40.10;;;;;;5071824;28;19968;-62
2022/04/29 14:24:13;;;;;;;;;;;21.40;40.10;;;;;;5072563;28;20003;-62
2022/04/29 14:26:38;;;;;;;;;;;21.40;40.10;;;;;;5072988;28;19912;-61
2022/04/29 14:29:04;;;;;;;;;;;21.50;40.10;;;;;;5072699;28;19919;-62
2022/04/29 14:31:30;;;;;;;;;;;21.60;40.00;;;;;;5072863;28;20015;-62
2022/04/29 14:33:58;;;;;;;;;;;21.60;40.00;;;;;;5073058;28;19915;-62
2022/04/29 14:36:26;;;;;;;;;;;21.60;40.00;;;;;;5055703;28;19909;-62
2022/04/29 14:38:52;;;;;;;;;;;21.60;40.00;;;;;;5063565;28;19908;-62
2022/04/29 14:41:17;;;;;;;;;;;21.60;40.00;;;;;;5072408;28;19909;-62
2022/04/29 14:43:42;;;;;;;;;;;21.70;39.90;;;;;;5072228;28;20284;-62
2022/04/29 14:46:08;;;;;;;;;;;21.70;39.70;;;;;;5072612;28;20371;-61